sensor_id;sensor_type;location;lat;lon;timestamp;P1;durP1;ratioP1;P2;durP2;ratioP2
54993;SDS011;40891;47.242;8.648;2022-08-21T00:01:09;2.08;;;1.70;;
54993;SDS011;40891;47.242;8.648;2022-08-21T00:03:38;2.33;;;1.88;;
54993;SDS011;40891;47.242;8.648;2022-08-21T00:06:03;2.13;;;1.20;;
54993;SDS011;40891;47.242;8.648;2022-08-21T00:08:29;1.75;;;1.25;;
54993;SDS011;40891;47.242;8.648;2022-08-21T00:10:55;1.90;;;1.70;;
54993;SDS011;40891;47.242;8.648;2022-08-21T00:13:20;4.43;;;1.50;;
54993;SDS011;40891;47.242;8.648;2022-08-21T00:15:46;2.30;;;1.58;;
54993;SDS011;40891;47.242;8.648;2022-08-21T00:18:12;3.65;;;1.60;;
54993;SDS011;40891;47.242;8.648;2022-08-21T00:20:39;1.58;;;1.15;;
54993;SDS011;40891;47.242;8.648;2022-08-21T00:23:06;2.95;;;1.40;;
54993;SDS011;40891;47.242;8.648;2022-08-21T00:25:32;6.53;;;1.50;;
54993;SDS011;40891;47.242;8.648;2022-08-21T00:27:58;2.17;;;1.27;;
54993;SDS011;40891;47.242;8.648;2022-08-21T00:30:24;2.08;;;1.30;;
54993;SDS011;40891;47.242;8.648;2022-08-21T00:32:51;4.50;;;1.25;;
54993;SDS011;40891;47.242;8.648;2022-08-21T00:35:19;1.88;;;1.48;;
54993;SDS011;40891;47.242;8.648;2022-08-21T00:37:48;2.83;;;1.23;;
54993;SDS011;40891;47.242;8.648;2022-08-21T00:40:15;3.92;;;1.40;;
54993;SDS011;40891;47.242;8.648;2022-08-21T00:42:43;5.25;;;1.75;;
54993;SDS011;40891;47.242;8.648;2022-08-21T00:45:13;1.83;;;1.48;;
54993;SDS011;40891;47.242;8.648;2022-08-21T00:47:39;4.40;;;1.15;;
54993;SDS011;40891;47.242;8.648;2022-08-21T00:50:05;3.50;;;1.70;;
54993;SDS011;40891;47.242;8.648;2022-08-21T00:52:37;2.65;;;1.63;;
54993;SDS011;40891;47.242;8.648;2022-08-21T00:55:06;2.05;;;1.30;;
54993;SDS011;40891;47.242;8.648;2022-08-21T00:57:40;1.50;;;1.40;;
54993;SDS011;40891;47.242;8.648;2022-08-21T01:00:11;2.55;;;1.25;;
54993;SDS011;40891;47.242;8.648;2022-08-21T01:02:40;1.27;;;1.10;;
54993;SDS011;40891;47.242;8.648;2022-08-21T01:05:05;4.88;;;2.40;;
54993;SDS011;40891;47.242;8.648;2022-08-21T01:07:31;1.42;;;1.20;;
54993;SDS011;40891;47.242;8.648;2022-08-21T01:09:57;2.05;;;1.20;;
54993;SDS011;40891;47.242;8.648;2022-08-21T01:12:23;2.47;;;1.50;;
54993;SDS011;40891;47.242;8.648;2022-08-21T01:14:49;1.48;;;1.38;;
54993;SDS011;40891;47.242;8.648;2022-08-21T01:17:14;7.10;;;1.77;;
54993;SDS011;40891;47.242;8.648;2022-08-21T01:19:41;2.00;;;1.40;;
54993;SDS011;40891;47.242;8.648;2022-08-21T01:22:07;1.50;;;1.40;;
54993;SDS011;40891;47.242;8.648;2022-08-21T01:24:33;4.10;;;1.98;;
54993;SDS011;40891;47.242;8.648;2022-08-21T01:26:59;3.83;;;1.60;;
54993;SDS011;40891;47.242;8.648;2022-08-21T01:29:36;1.95;;;1.50;;
54993;SDS011;40891;47.242;8.648;2022-08-21T01:32:10;2.03;;;1.38;;
54993;SDS011;40891;47.242;8.648;2022-08-21T01:34:39;2.17;;;1.75;;
54993;SDS011;40891;47.242;8.648;2022-08-21T01:37:07;3.67;;;1.60;;
54993;SDS011;40891;47.242;8.648;2022-08-21T01:39:33;2.38;;;1.40;;
54993;SDS011;40891;47.242;8.648;2022-08-21T01:41:59;4.60;;;1.50;;
54993;SDS011;40891;47.242;8.648;2022-08-21T01:44:25;2.13;;;1.65;;
54993;SDS011;40891;47.242;8.648;2022-08-21T01:46:51;1.58;;;1.48;;
54993;SDS011;40891;47.242;8.648;2022-08-21T01:49:17;2.40;;;1.50;;
54993;SDS011;40891;47.242;8.648;2022-08-21T01:51:43;1.85;;;1.33;;
54993;SDS011;40891;47.242;8.648;2022-08-21T01:54:08;1.83;;;1.65;;
54993;SDS011;40891;47.242;8.648;2022-08-21T01:56:37;2.85;;;1.80;;
54993;SDS011;40891;47.242;8.648;2022-08-21T01:59:05;3.83;;;1.50;;
54993;SDS011;40891;47.242;8.648;2022-08-21T02:01:30;3.80;;;1.70;;
54993;SDS011;40891;47.242;8.648;2022-08-21T02:03:56;5.63;;;1.48;;
54993;SDS011;40891;47.242;8.648;2022-08-21T02:06:21;1.70;;;1.60;;
54993;SDS011;40891;47.242;8.648;2022-08-21T02:08:47;3.60;;;1.70;;
54993;SDS011;40891;47.242;8.648;2022-08-21T02:11:12;1.40;;;1.30;;
54993;SDS011;40891;47.242;8.648;2022-08-21T02:13:38;2.15;;;1.63;;
54993;SDS011;40891;47.242;8.648;2022-08-21T02:16:03;1.55;;;1.40;;
54993;SDS011;40891;47.242;8.648;2022-08-21T02:18:29;2.60;;;1.48;;
54993;SDS011;40891;47.242;8.648;2022-08-21T02:20:54;1.88;;;1.35;;
54993;SDS011;40891;47.242;8.648;2022-08-21T02:23:20;5.25;;;1.40;;
54993;SDS011;40891;47.242;8.648;2022-08-21T02:25:45;2.55;;;1.30;;
54993;SDS011;40891;47.242;8.648;2022-08-21T02:28:12;3.10;;;1.48;;
54993;SDS011;40891;47.242;8.648;2022-08-21T02:30:40;1.95;;;1.27;;
54993;SDS011;40891;47.242;8.648;2022-08-21T02:33:08;6.60;;;1.40;;
54993;SDS011;40891;47.242;8.648;2022-08-21T02:35:35;1.63;;;1.52;;
54993;SDS011;40891;47.242;8.648;2022-08-21T02:38:02;6.72;;;1.40;;
54993;SDS011;40891;47.242;8.648;2022-08-21T02:40:32;5.53;;;1.50;;
54993;SDS011;40891;47.242;8.648;2022-08-21T02:43:00;2.47;;;1.27;;
54993;SDS011;40891;47.242;8.648;2022-08-21T02:45:27;3.03;;;1.60;;
54993;SDS011;40891;47.242;8.648;2022-08-21T02:47:55;1.77;;;1.50;;
54993;SDS011;40891;47.242;8.648;2022-08-21T02:50:27;2.40;;;1.30;;
54993;SDS011;40891;47.242;8.648;2022-08-21T02:52:55;4.25;;;1.33;;
54993;SDS011;40891;47.242;8.648;2022-08-21T02:55:25;2.65;;;1.30;;
54993;SDS011;40891;47.242;8.648;2022-08-21T02:57:52;3.75;;;1.38;;
54993;SDS011;40891;47.242;8.648;2022-08-21T03:00:20;1.30;;;1.20;;
54993;SDS011;40891;47.242;8.648;2022-08-21T03:02:46;5.28;;;1.40;;
54993;SDS011;40891;47.242;8.648;2022-08-21T03:05:13;5.05;;;1.40;;
54993;SDS011;40891;47.242;8.648;2022-08-21T03:07:40;1.85;;;1.50;;
54993;SDS011;40891;47.242;8.648;2022-08-21T03:10:06;2.00;;;1.40;;
54993;SDS011;40891;47.242;8.648;2022-08-21T03:12:32;2.15;;;1.25;;
54993;SDS011;40891;47.242;8.648;2022-08-21T03:15:00;1.33;;;1.13;;
54993;SDS011;40891;47.242;8.648;2022-08-21T03:17:26;2.38;;;1.33;;
54993;SDS011;40891;47.242;8.648;2022-08-21T03:19:52;1.80;;;1.30;;
54993;SDS011;40891;47.242;8.648;2022-08-21T03:22:17;1.55;;;1.00;;
54993;SDS011;40891;47.242;8.648;2022-08-21T03:24:43;1.30;;;1.00;;
54993;SDS011;40891;47.242;8.648;2022-08-21T03:27:08;2.50;;;1.25;;
54993;SDS011;40891;47.242;8.648;2022-08-21T03:29:33;1.70;;;1.40;;
54993;SDS011;40891;47.242;8.648;2022-08-21T03:31:59;1.30;;;1.20;;
54993;SDS011;40891;47.242;8.648;2022-08-21T03:34:24;3.45;;;1.73;;
54993;SDS011;40891;47.242;8.648;2022-08-21T03:36:49;4.35;;;1.40;;
54993;SDS011;40891;47.242;8.648;2022-08-21T03:39:15;3.17;;;1.77;;
54993;SDS011;40891;47.242;8.648;2022-08-21T03:41:41;2.65;;;1.33;;
54993;SDS011;40891;47.242;8.648;2022-08-21T03:44:07;1.85;;;1.50;;
54993;SDS011;40891;47.242;8.648;2022-08-21T03:46:32;2.53;;;1.20;;
54993;SDS011;40891;47.242;8.648;2022-08-21T03:48:57;3.22;;;1.52;;
54993;SDS011;40891;47.242;8.648;2022-08-21T03:51:23;1.85;;;1.30;;
54993;SDS011;40891;47.242;8.648;2022-08-21T03:53:48;2.88;;;1.50;;
54993;SDS011;40891;47.242;8.648;2022-08-21T03:56:14;2.92;;;1.52;;
54993;SDS011;40891;47.242;8.648;2022-08-21T03:58:41;2.67;;;1.52;;
54993;SDS011;40891;47.242;8.648;2022-08-21T04:01:07;3.85;;;1.40;;
54993;SDS011;40891;47.242;8.648;2022-08-21T04:03:33;4.93;;;1.63;;
54993;SDS011;40891;47.242;8.648;2022-08-21T04:06:00;6.82;;;1.85;;
54993;SDS011;40891;47.242;8.648;2022-08-21T04:08:26;2.13;;;1.30;;
54993;SDS011;40891;47.242;8.648;2022-08-21T04:10:52;5.88;;;1.40;;
54993;SDS011;40891;47.242;8.648;2022-08-21T04:13:20;3.60;;;1.40;;
54993;SDS011;40891;47.242;8.648;2022-08-21T04:15:46;1.40;;;1.30;;
54993;SDS011;40891;47.242;8.648;2022-08-21T04:18:12;1.55;;;1.42;;
54993;SDS011;40891;47.242;8.648;2022-08-21T04:20:38;2.67;;;1.40;;
54993;SDS011;40891;47.242;8.648;2022-08-21T04:23:04;8.00;;;1.50;;
54993;SDS011;40891;47.242;8.648;2022-08-21T04:25:30;3.22;;;1.40;;
54993;SDS011;40891;47.242;8.648;2022-08-21T04:27:55;2.90;;;1.38;;
54993;SDS011;40891;47.242;8.648;2022-08-21T04:30:21;4.25;;;1.38;;
54993;SDS011;40891;47.242;8.648;2022-08-21T04:32:47;3.78;;;1.70;;
54993;SDS011;40891;47.242;8.648;2022-08-21T04:35:14;4.10;;;1.35;;
54993;SDS011;40891;47.242;8.648;2022-08-21T04:37:41;6.15;;;1.70;;
54993;SDS011;40891;47.242;8.648;2022-08-21T04:40:07;4.43;;;1.55;;
54993;SDS011;40891;47.242;8.648;2022-08-21T04:42:40;1.48;;;1.38;;
54993;SDS011;40891;47.242;8.648;2022-08-21T04:45:08;1.75;;;1.40;;
54993;SDS011;40891;47.242;8.648;2022-08-21T04:47:34;2.45;;;1.35;;
54993;SDS011;40891;47.242;8.648;2022-08-21T04:49:59;1.50;;;1.30;;
54993;SDS011;40891;47.242;8.648;2022-08-21T04:52:24;1.52;;;1.42;;
54993;SDS011;40891;47.242;8.648;2022-08-21T04:54:50;2.20;;;1.50;;
54993;SDS011;40891;47.242;8.648;2022-08-21T04:57:17;5.15;;;1.90;;
54993;SDS011;40891;47.242;8.648;2022-08-21T04:59:47;4.07;;;1.92;;
54993;SDS011;40891;47.242;8.648;2022-08-21T05:02:16;1.80;;;1.52;;
54993;SDS011;40891;47.242;8.648;2022-08-21T05:04:48;6.18;;;1.75;;
54993;SDS011;40891;47.242;8.648;2022-08-21T05:07:19;1.40;;;1.30;;
54993;SDS011;40891;47.242;8.648;2022-08-21T05:09:47;1.48;;;1.35;;
54993;SDS011;40891;47.242;8.648;2022-08-21T05:12:13;1.70;;;1.20;;
54993;SDS011;40891;47.242;8.648;2022-08-21T05:14:39;2.47;;;1.55;;
54993;SDS011;40891;47.242;8.648;2022-08-21T05:17:04;1.77;;;1.50;;
54993;SDS011;40891;47.242;8.648;2022-08-21T05:19:30;1.58;;;1.42;;
54993;SDS011;40891;47.242;8.648;2022-08-21T05:21:55;2.10;;;1.67;;
54993;SDS011;40891;47.242;8.648;2022-08-21T05:24:22;1.83;;;1.40;;
54993;SDS011;40891;47.242;8.648;2022-08-21T05:26:47;1.88;;;1.45;;
54993;SDS011;40891;47.242;8.648;2022-08-21T05:29:14;1.90;;;1.52;;
54993;SDS011;40891;47.242;8.648;2022-08-21T05:31:40;1.95;;;1.30;;
54993;SDS011;40891;47.242;8.648;2022-08-21T05:34:06;1.70;;;1.33;;
54993;SDS011;40891;47.242;8.648;2022-08-21T05:36:31;3.35;;;1.40;;
54993;SDS011;40891;47.242;8.648;2022-08-21T05:38:57;3.85;;;1.40;;
54993;SDS011;40891;47.242;8.648;2022-08-21T05:41:22;3.92;;;1.40;;
54993;SDS011;40891;47.242;8.648;2022-08-21T05:43:47;2.00;;;1.30;;
54993;SDS011;40891;47.242;8.648;2022-08-21T05:46:13;2.55;;;1.20;;
54993;SDS011;40891;47.242;8.648;2022-08-21T05:48:38;1.25;;;1.15;;
54993;SDS011;40891;47.242;8.648;2022-08-21T05:51:05;3.72;;;1.40;;
54993;SDS011;40891;47.242;8.648;2022-08-21T05:53:32;1.98;;;1.50;;
54993;SDS011;40891;47.242;8.648;2022-08-21T05:55:57;1.40;;;1.30;;
54993;SDS011;40891;47.242;8.648;2022-08-21T05:58:22;2.90;;;1.20;;
54993;SDS011;40891;47.242;8.648;2022-08-21T06:00:48;3.22;;;1.23;;
54993;SDS011;40891;47.242;8.648;2022-08-21T06:03:19;2.58;;;1.08;;
54993;SDS011;40891;47.242;8.648;2022-08-21T06:05:47;2.45;;;1.40;;
54993;SDS011;40891;47.242;8.648;2022-08-21T06:08:14;1.55;;;1.20;;
54993;SDS011;40891;47.242;8.648;2022-08-21T06:10:41;2.10;;;1.20;;
54993;SDS011;40891;47.242;8.648;2022-08-21T06:13:06;1.23;;;1.10;;
54993;SDS011;40891;47.242;8.648;2022-08-21T06:15:32;3.17;;;1.48;;
54993;SDS011;40891;47.242;8.648;2022-08-21T06:17:57;4.88;;;1.35;;
54993;SDS011;40891;47.242;8.648;2022-08-21T06:20:23;1.90;;;1.42;;
54993;SDS011;40891;47.242;8.648;2022-08-21T06:22:48;2.03;;;1.30;;
54993;SDS011;40891;47.242;8.648;2022-08-21T06:25:14;1.52;;;1.40;;
54993;SDS011;40891;47.242;8.648;2022-08-21T06:27:39;1.55;;;1.42;;
54993;SDS011;40891;47.242;8.648;2022-08-21T06:30:05;1.40;;;1.20;;
54993;SDS011;40891;47.242;8.648;2022-08-21T06:32:31;5.10;;;1.33;;
54993;SDS011;40891;47.242;8.648;2022-08-21T06:34:57;2.95;;;1.40;;
54993;SDS011;40891;47.242;8.648;2022-08-21T06:37:22;1.40;;;1.30;;
54993;SDS011;40891;47.242;8.648;2022-08-21T06:39:47;1.98;;;1.10;;
54993;SDS011;40891;47.242;8.648;2022-08-21T06:42:14;1.58;;;1.27;;
54993;SDS011;40891;47.242;8.648;2022-08-21T06:44:41;3.50;;;1.20;;
54993;SDS011;40891;47.242;8.648;2022-08-21T06:47:07;1.27;;;1.17;;
54993;SDS011;40891;47.242;8.648;2022-08-21T06:49:33;1.10;;;1.00;;
54993;SDS011;40891;47.242;8.648;2022-08-21T06:51:59;2.65;;;1.17;;
54993;SDS011;40891;47.242;8.648;2022-08-21T06:54:24;1.20;;;1.00;;
54993;SDS011;40891;47.242;8.648;2022-08-21T06:56:50;1.70;;;1.30;;
54993;SDS011;40891;47.242;8.648;2022-08-21T06:59:15;2.50;;;1.30;;
54993;SDS011;40891;47.242;8.648;2022-08-21T07:01:41;1.95;;;1.60;;
54993;SDS011;40891;47.242;8.648;2022-08-21T07:04:06;3.10;;;1.40;;
54993;SDS011;40891;47.242;8.648;2022-08-21T07:06:32;2.42;;;1.58;;
54993;SDS011;40891;47.242;8.648;2022-08-21T07:08:57;2.80;;;1.38;;
54993;SDS011;40891;47.242;8.648;2022-08-21T07:11:23;2.75;;;1.38;;
54993;SDS011;40891;47.242;8.648;2022-08-21T07:13:50;4.30;;;1.48;;
54993;SDS011;40891;47.242;8.648;2022-08-21T07:16:17;1.83;;;1.40;;
54993;SDS011;40891;47.242;8.648;2022-08-21T07:18:43;2.17;;;1.52;;
54993;SDS011;40891;47.242;8.648;2022-08-21T07:21:08;2.55;;;1.35;;
54993;SDS011;40891;47.242;8.648;2022-08-21T07:23:38;4.63;;;1.48;;
54993;SDS011;40891;47.242;8.648;2022-08-21T07:26:06;1.48;;;1.38;;
54993;SDS011;40891;47.242;8.648;2022-08-21T07:28:31;3.42;;;1.33;;
54993;SDS011;40891;47.242;8.648;2022-08-21T07:30:59;4.15;;;1.58;;
54993;SDS011;40891;47.242;8.648;2022-08-21T07:33:26;3.97;;;1.50;;
54993;SDS011;40891;47.242;8.648;2022-08-21T07:35:52;8.70;;;1.48;;
54993;SDS011;40891;47.242;8.648;2022-08-21T07:38:18;2.85;;;1.42;;
54993;SDS011;40891;47.242;8.648;2022-08-21T07:40:44;3.05;;;1.40;;
54993;SDS011;40891;47.242;8.648;2022-08-21T07:43:11;1.73;;;1.50;;
54993;SDS011;40891;47.242;8.648;2022-08-21T07:45:36;5.97;;;1.40;;
54993;SDS011;40891;47.242;8.648;2022-08-21T07:48:02;3.45;;;1.48;;
54993;SDS011;40891;47.242;8.648;2022-08-21T07:50:28;1.35;;;1.23;;
54993;SDS011;40891;47.242;8.648;2022-08-21T07:52:54;4.15;;;1.50;;
54993;SDS011;40891;47.242;8.648;2022-08-21T07:55:20;1.52;;;1.30;;
54993;SDS011;40891;47.242;8.648;2022-08-21T07:57:46;1.60;;;1.10;;
54993;SDS011;40891;47.242;8.648;2022-08-21T08:00:14;1.85;;;1.25;;
54993;SDS011;40891;47.242;8.648;2022-08-21T08:02:43;2.95;;;1.50;;
54993;SDS011;40891;47.242;8.648;2022-08-21T08:05:11;2.05;;;1.23;;
54993;SDS011;40891;47.242;8.648;2022-08-21T08:07:37;2.35;;;1.15;;
54993;SDS011;40891;47.242;8.648;2022-08-21T08:10:04;2.00;;;1.50;;
54993;SDS011;40891;47.242;8.648;2022-08-21T08:12:32;1.60;;;1.30;;
54993;SDS011;40891;47.242;8.648;2022-08-21T08:14:59;1.85;;;1.20;;
54993;SDS011;40891;47.242;8.648;2022-08-21T08:17:26;2.60;;;1.48;;
54993;SDS011;40891;47.242;8.648;2022-08-21T08:19:52;1.67;;;1.00;;
54993;SDS011;40891;47.242;8.648;2022-08-21T08:22:18;1.58;;;1.38;;
54993;SDS011;40891;47.242;8.648;2022-08-21T08:24:47;1.50;;;1.13;;
54993;SDS011;40891;47.242;8.648;2022-08-21T08:27:13;1.55;;;1.20;;
54993;SDS011;40891;47.242;8.648;2022-08-21T08:29:40;1.40;;;1.10;;
54993;SDS011;40891;47.242;8.648;2022-08-21T08:32:05;1.45;;;1.35;;
54993;SDS011;40891;47.242;8.648;2022-08-21T08:34:34;3.72;;;1.50;;
54993;SDS011;40891;47.242;8.648;2022-08-21T08:37:01;2.45;;;1.10;;
54993;SDS011;40891;47.242;8.648;2022-08-21T08:39:28;1.30;;;0.95;;
54993;SDS011;40891;47.242;8.648;2022-08-21T08:41:59;1.27;;;1.00;;
54993;SDS011;40891;47.242;8.648;2022-08-21T08:44:38;5.63;;;1.15;;
54993;SDS011;40891;47.242;8.648;2022-08-21T08:47:06;1.27;;;1.08;;
54993;SDS011;40891;47.242;8.648;2022-08-21T08:50:07;2.85;;;1.10;;
54993;SDS011;40891;47.242;8.648;2022-08-21T08:52:33;1.75;;;1.25;;
54993;SDS011;40891;47.242;8.648;2022-08-21T08:57:34;2.00;;;1.63;;
54993;SDS011;40891;47.242;8.648;2022-08-21T09:00:09;2.03;;;1.15;;
54993;SDS011;40891;47.242;8.648;2022-08-21T09:02:38;1.67;;;1.13;;
54993;SDS011;40891;47.242;8.648;2022-08-21T09:05:06;2.75;;;1.10;;
54993;SDS011;40891;47.242;8.648;2022-08-21T09:12:59;2.63;;;1.30;;
54993;SDS011;40891;47.242;8.648;2022-08-21T09:27:05;1.52;;;1.20;;
54993;SDS011;40891;47.242;8.648;2022-08-21T09:29:38;1.15;;;1.05;;
54993;SDS011;40891;47.242;8.648;2022-08-21T09:32:09;4.20;;;1.10;;
54993;SDS011;40891;47.242;8.648;2022-08-21T09:34:40;1.42;;;1.25;;
54993;SDS011;40891;47.242;8.648;2022-08-21T09:37:05;3.13;;;1.20;;
54993;SDS011;40891;47.242;8.648;2022-08-21T09:39:42;2.85;;;1.30;;
54993;SDS011;40891;47.242;8.648;2022-08-21T09:42:09;1.30;;;1.05;;
54993;SDS011;40891;47.242;8.648;2022-08-21T09:44:39;1.20;;;1.10;;
54993;SDS011;40891;47.242;8.648;2022-08-21T09:47:08;4.38;;;1.10;;
54993;SDS011;40891;47.242;8.648;2022-08-21T09:49:38;3.15;;;1.20;;
54993;SDS011;40891;47.242;8.648;2022-08-21T09:52:06;1.10;;;0.90;;
54993;SDS011;40891;47.242;8.648;2022-08-21T09:54:44;1.77;;;1.20;;
54993;SDS011;40891;47.242;8.648;2022-08-21T09:57:15;1.67;;;0.98;;
54993;SDS011;40891;47.242;8.648;2022-08-21T10:00:28;1.90;;;1.30;;
54993;SDS011;40891;47.242;8.648;2022-08-21T10:03:13;2.63;;;1.55;;
54993;SDS011;40891;47.242;8.648;2022-08-21T10:05:51;1.38;;;1.13;;
54993;SDS011;40891;47.242;8.648;2022-08-21T10:08:19;1.20;;;1.10;;
54993;SDS011;40891;47.242;8.648;2022-08-21T10:10:49;1.02;;;0.93;;
54993;SDS011;40891;47.242;8.648;2022-08-21T10:18:41;1.20;;;1.10;;
54993;SDS011;40891;47.242;8.648;2022-08-21T10:21:25;2.85;;;1.20;;
54993;SDS011;40891;47.242;8.648;2022-08-21T10:24:00;1.52;;;0.90;;
54993;SDS011;40891;47.242;8.648;2022-08-21T10:26:32;1.00;;;0.98;;
54993;SDS011;40891;47.242;8.648;2022-08-21T10:56:56;1.08;;;0.95;;
54993;SDS011;40891;47.242;8.648;2022-08-21T10:59:28;0.93;;;0.82;;
54993;SDS011;40891;47.242;8.648;2022-08-21T11:05:02;1.20;;;0.60;;
54993;SDS011;40891;47.242;8.648;2022-08-21T11:07:37;1.48;;;0.77;;
54993;SDS011;40891;47.242;8.648;2022-08-21T11:10:26;1.92;;;0.70;;
54993;SDS011;40891;47.242;8.648;2022-08-21T11:12:58;0.95;;;0.65;;
54993;SDS011;40891;47.242;8.648;2022-08-21T11:15:39;1.50;;;0.70;;
54993;SDS011;40891;47.242;8.648;2022-08-21T11:23:24;1.42;;;0.60;;
54993;SDS011;40891;47.242;8.648;2022-08-21T11:25:53;1.63;;;0.60;;
54993;SDS011;40891;47.242;8.648;2022-08-21T11:28:26;0.90;;;0.57;;
54993;SDS011;40891;47.242;8.648;2022-08-21T11:31:08;1.77;;;0.70;;
54993;SDS011;40891;47.242;8.648;2022-08-21T11:45:17;0.52;;;0.52;;
54993;SDS011;40891;47.242;8.648;2022-08-21T11:50:39;0.85;;;0.63;;
54993;SDS011;40891;47.242;8.648;2022-08-21T11:53:14;0.68;;;0.57;;
54993;SDS011;40891;47.242;8.648;2022-08-21T11:55:46;2.03;;;0.60;;
54993;SDS011;40891;47.242;8.648;2022-08-21T12:00:58;2.67;;;0.70;;
54993;SDS011;40891;47.242;8.648;2022-08-21T12:03:32;3.03;;;0.45;;
54993;SDS011;40891;47.242;8.648;2022-08-21T12:06:08;0.55;;;0.40;;
54993;SDS011;40891;47.242;8.648;2022-08-21T12:08:37;1.00;;;0.60;;
54993;SDS011;40891;47.242;8.648;2022-08-21T12:11:05;0.47;;;0.47;;
54993;SDS011;40891;47.242;8.648;2022-08-21T12:13:34;1.05;;;0.60;;
54993;SDS011;40891;47.242;8.648;2022-08-21T12:16:45;2.10;;;0.90;;
54993;SDS011;40891;47.242;8.648;2022-08-21T12:19:12;2.85;;;0.70;;
54993;SDS011;40891;47.242;8.648;2022-08-21T12:27:01;2.85;;;0.70;;
54993;SDS011;40891;47.242;8.648;2022-08-21T12:29:45;1.13;;;0.60;;
54993;SDS011;40891;47.242;8.648;2022-08-21T12:34:38;1.73;;;0.60;;
54993;SDS011;40891;47.242;8.648;2022-08-21T12:40:14;0.50;;;0.50;;
54993;SDS011;40891;47.242;8.648;2022-08-21T12:42:55;0.88;;;0.63;;
54993;SDS011;40891;47.242;8.648;2022-08-21T12:45:31;0.57;;;0.50;;
54993;SDS011;40891;47.242;8.648;2022-08-21T12:48:10;1.13;;;0.70;;
54993;SDS011;40891;47.242;8.648;2022-08-21T12:50:53;2.38;;;0.70;;
54993;SDS011;40891;47.242;8.648;2022-08-21T12:53:37;2.78;;;0.70;;
54993;SDS011;40891;47.242;8.648;2022-08-21T12:56:10;1.75;;;0.70;;
54993;SDS011;40891;47.242;8.648;2022-08-21T12:58:45;2.42;;;0.80;;
54993;SDS011;40891;47.242;8.648;2022-08-21T13:01:23;1.27;;;0.68;;
54993;SDS011;40891;47.242;8.648;2022-08-21T13:03:51;1.98;;;0.70;;
54993;SDS011;40891;47.242;8.648;2022-08-21T13:06:19;0.98;;;0.60;;
54993;SDS011;40891;47.242;8.648;2022-08-21T13:08:45;1.80;;;0.80;;
54993;SDS011;40891;47.242;8.648;2022-08-21T13:11:14;0.93;;;0.70;;
54993;SDS011;40891;47.242;8.648;2022-08-21T13:13:47;1.38;;;0.70;;
54993;SDS011;40891;47.242;8.648;2022-08-21T13:16:13;1.25;;;0.85;;
54993;SDS011;40891;47.242;8.648;2022-08-21T13:18:53;0.90;;;0.73;;
54993;SDS011;40891;47.242;8.648;2022-08-21T13:21:26;1.40;;;0.80;;
54993;SDS011;40891;47.242;8.648;2022-08-21T13:24:17;2.47;;;0.80;;
54993;SDS011;40891;47.242;8.648;2022-08-21T13:26:45;1.55;;;0.88;;
54993;SDS011;40891;47.242;8.648;2022-08-21T13:29:12;2.70;;;0.80;;
54993;SDS011;40891;47.242;8.648;2022-08-21T13:31:40;1.02;;;0.80;;
54993;SDS011;40891;47.242;8.648;2022-08-21T13:34:07;1.55;;;0.52;;
54993;SDS011;40891;47.242;8.648;2022-08-21T13:36:36;2.67;;;0.70;;
54993;SDS011;40891;47.242;8.648;2022-08-21T13:39:05;0.70;;;0.60;;
54993;SDS011;40891;47.242;8.648;2022-08-21T13:41:34;1.27;;;0.80;;
54993;SDS011;40891;47.242;8.648;2022-08-21T13:44:03;2.22;;;0.70;;
54993;SDS011;40891;47.242;8.648;2022-08-21T13:46:40;1.90;;;0.88;;
54993;SDS011;40891;47.242;8.648;2022-08-21T13:49:07;2.03;;;0.80;;
54993;SDS011;40891;47.242;8.648;2022-08-21T13:51:34;2.15;;;0.93;;
54993;SDS011;40891;47.242;8.648;2022-08-21T13:54:01;1.83;;;0.70;;
54993;SDS011;40891;47.242;8.648;2022-08-21T13:56:29;1.60;;;1.10;;
54993;SDS011;40891;47.242;8.648;2022-08-21T13:58:56;2.03;;;0.75;;
54993;SDS011;40891;47.242;8.648;2022-08-21T14:01:39;1.20;;;0.70;;
54993;SDS011;40891;47.242;8.648;2022-08-21T14:06:45;1.88;;;0.90;;
54993;SDS011;40891;47.242;8.648;2022-08-21T14:11:56;0.82;;;0.70;;
54993;SDS011;40891;47.242;8.648;2022-08-21T14:14:27;1.00;;;0.70;;
54993;SDS011;40891;47.242;8.648;2022-08-21T14:17:00;1.67;;;0.77;;
54993;SDS011;40891;47.242;8.648;2022-08-21T14:19:44;0.80;;;0.70;;
54993;SDS011;40891;47.242;8.648;2022-08-21T14:22:21;2.47;;;0.70;;
54993;SDS011;40891;47.242;8.648;2022-08-21T14:24:47;1.30;;;0.60;;
54993;SDS011;40891;47.242;8.648;2022-08-21T14:27:15;1.58;;;0.70;;
54993;SDS011;40891;47.242;8.648;2022-08-21T14:29:42;0.60;;;0.57;;
54993;SDS011;40891;47.242;8.648;2022-08-21T14:32:15;1.00;;;0.60;;
54993;SDS011;40891;47.242;8.648;2022-08-21T14:34:45;2.38;;;0.82;;
54993;SDS011;40891;47.242;8.648;2022-08-21T14:37:10;1.55;;;0.73;;
54993;SDS011;40891;47.242;8.648;2022-08-21T14:39:35;2.13;;;0.65;;
54993;SDS011;40891;47.242;8.648;2022-08-21T14:42:01;1.73;;;0.57;;
54993;SDS011;40891;47.242;8.648;2022-08-21T14:44:26;2.08;;;0.57;;
54993;SDS011;40891;47.242;8.648;2022-08-21T14:46:52;2.25;;;0.80;;
54993;SDS011;40891;47.242;8.648;2022-08-21T14:49:18;2.38;;;0.77;;
54993;SDS011;40891;47.242;8.648;2022-08-21T14:51:44;1.33;;;1.13;;
54993;SDS011;40891;47.242;8.648;2022-08-21T14:54:09;1.48;;;0.90;;
54993;SDS011;40891;47.242;8.648;2022-08-21T14:56:34;1.70;;;0.80;;
54993;SDS011;40891;47.242;8.648;2022-08-21T14:59:05;0.95;;;0.60;;
54993;SDS011;40891;47.242;8.648;2022-08-21T15:01:33;0.73;;;0.50;;
54993;SDS011;40891;47.242;8.648;2022-08-21T15:04:00;0.68;;;0.47;;
54993;SDS011;40891;47.242;8.648;2022-08-21T15:06:25;1.27;;;0.70;;
54993;SDS011;40891;47.242;8.648;2022-08-21T15:08:51;3.45;;;0.80;;
54993;SDS011;40891;47.242;8.648;2022-08-21T15:11:17;2.28;;;0.77;;
54993;SDS011;40891;47.242;8.648;2022-08-21T15:13:45;1.77;;;0.60;;
54993;SDS011;40891;47.242;8.648;2022-08-21T15:16:11;2.00;;;0.50;;
54993;SDS011;40891;47.242;8.648;2022-08-21T15:18:37;0.65;;;0.50;;
54993;SDS011;40891;47.242;8.648;2022-08-21T15:21:03;3.13;;;0.65;;
54993;SDS011;40891;47.242;8.648;2022-08-21T15:23:28;1.85;;;0.68;;
54993;SDS011;40891;47.242;8.648;2022-08-21T15:25:54;2.47;;;0.52;;
54993;SDS011;40891;47.242;8.648;2022-08-21T15:28:22;1.10;;;0.60;;
54993;SDS011;40891;47.242;8.648;2022-08-21T15:30:48;0.80;;;0.70;;
54993;SDS011;40891;47.242;8.648;2022-08-21T15:33:14;1.75;;;0.60;;
54993;SDS011;40891;47.242;8.648;2022-08-21T15:35:39;1.95;;;0.50;;
54993;SDS011;40891;47.242;8.648;2022-08-21T15:38:05;1.35;;;0.52;;
54993;SDS011;40891;47.242;8.648;2022-08-21T15:40:31;1.05;;;0.60;;
54993;SDS011;40891;47.242;8.648;2022-08-21T15:43:00;1.13;;;0.70;;
54993;SDS011;40891;47.242;8.648;2022-08-21T15:45:27;3.03;;;0.60;;
54993;SDS011;40891;47.242;8.648;2022-08-21T15:47:53;2.42;;;0.80;;
54993;SDS011;40891;47.242;8.648;2022-08-21T15:50:19;1.75;;;0.60;;
54993;SDS011;40891;47.242;8.648;2022-08-21T15:52:45;0.68;;;0.60;;
54993;SDS011;40891;47.242;8.648;2022-08-21T15:55:10;0.95;;;0.60;;
54993;SDS011;40891;47.242;8.648;2022-08-21T15:57:37;1.13;;;0.50;;
54993;SDS011;40891;47.242;8.648;2022-08-21T16:00:11;1.70;;;0.60;;
54993;SDS011;40891;47.242;8.648;2022-08-21T16:02:42;1.13;;;0.63;;
54993;SDS011;40891;47.242;8.648;2022-08-21T16:05:10;1.20;;;0.63;;
54993;SDS011;40891;47.242;8.648;2022-08-21T16:07:37;1.15;;;0.70;;
54993;SDS011;40891;47.242;8.648;2022-08-21T16:10:03;0.77;;;0.60;;
54993;SDS011;40891;47.242;8.648;2022-08-21T16:12:30;1.58;;;0.70;;
54993;SDS011;40891;47.242;8.648;2022-08-21T16:14:59;0.88;;;0.57;;
54993;SDS011;40891;47.242;8.648;2022-08-21T16:17:29;0.80;;;0.70;;
54993;SDS011;40891;47.242;8.648;2022-08-21T16:19:58;1.42;;;0.70;;
54993;SDS011;40891;47.242;8.648;2022-08-21T16:22:25;1.70;;;1.00;;
54993;SDS011;40891;47.242;8.648;2022-08-21T16:24:51;2.08;;;0.77;;
54993;SDS011;40891;47.242;8.648;2022-08-21T16:27:16;3.47;;;0.77;;
54993;SDS011;40891;47.242;8.648;2022-08-21T16:29:43;0.82;;;0.60;;